Time;durP1;ratioP1;P1;durP2;ratioP2;P2;SDS_P1;SDS_P2;PMS_P1;PMS_P2;Temp;Humidity;BMP_temperature;BMP_pressure;BME280_temperature;BME280_humidity;BME280_pressure;Samples;Min_cycle;Max_cycle;Signal;HPM_P1;HPM_P2
2022/06/28 00:00:24;;;;;;;41.43;19.07;;;13.10;99.90;;;;;;4982137;28;20386;-75
2022/06/28 00:02:50;;;;;;;37.20;19.05;;;13.10;99.90;;;;;;4998570;28;20052;-75
2022/06/28 00:05:16;;;;;;;47.37;19.43;;;13.10;99.90;;;;;;4982471;28;20049;-74
2022/06/28 00:07:42;;;;;;;40.08;20.10;;;13.00;99.90;;;;;;4999709;28;20378;-76
2022/06/28 00:10:11;;;;;;;36.67;19.47;;;13.00;99.90;;;;;;4999072;28;20057;-75
2022/06/28 00:12:37;;;;;;;39.85;18.92;;;13.00;99.90;;;;;;4998662;28;20316;-76
2022/06/28 00:17:50;;;;;;;43.35;20.08;;;13.00;99.90;;;;;;5016797;28;20064;-76
2022/06/28 00:20:15;;;;;;;36.17;18.58;;;12.90;99.90;;;;;;5015635;28;20046;-76
2022/06/28 00:22:41;;;;;;;38.15;18.33;;;12.90;99.90;;;;;;5015212;28;20052;-77
2022/06/28 00:25:08;;;;;;;47.33;19.00;;;12.90;99.90;;;;;;4982542;28;20145;-75
2022/06/28 00:27:34;;;;;;;41.63;20.38;;;12.90;99.90;;;;;;4998342;28;20045;-75
2022/06/28 00:30:00;;;;;;;38.85;18.83;;;12.90;99.90;;;;;;5015810;28;20037;-76
2022/06/28 00:32:26;;;;;;;45.22;20.23;;;12.80;99.90;;;;;;5016638;28;20470;-77
2022/06/28 00:34:52;;;;;;;43.00;18.40;;;12.80;99.90;;;;;;4998915;28;20053;-77
2022/06/28 00:37:17;;;;;;;43.03;18.98;;;12.80;99.90;;;;;;4999625;28;20046;-76
2022/06/28 00:39:43;;;;;;;48.13;20.30;;;12.80;99.90;;;;;;5016785;28;20042;-77
2022/06/28 00:42:10;;;;;;;47.38;20.13;;;12.80;99.90;;;;;;4982037;28;20418;-77
2022/06/28 00:44:37;;;;;;;51.63;20.23;;;12.80;99.90;;;;;;5014234;28;20064;-75
2022/06/28 00:47:04;;;;;;;40.45;18.55;;;12.70;99.90;;;;;;4996157;28;20056;-76
2022/06/28 00:49:30;;;;;;;37.20;17.95;;;12.70;99.90;;;;;;4979989;28;20060;-76
2022/06/28 00:51:58;;;;;;;36.20;17.65;;;12.70;99.90;;;;;;4996820;28;20049;-76
2022/06/28 00:54:25;;;;;;;48.90;20.02;;;12.70;99.90;;;;;;5014469;28;20046;-75
2022/06/28 00:56:52;;;;;;;40.75;17.98;;;12.70;99.90;;;;;;5013537;28;20049;-76
2022/06/28 00:59:18;;;;;;;36.85;17.48;;;12.70;99.90;;;;;;4995724;28;20042;-76
2022/06/28 01:01:44;;;;;;;39.42;18.20;;;12.70;99.90;;;;;;4995104;28;20057;-76
2022/06/28 01:04:10;;;;;;;43.28;19.70;;;12.70;99.90;;;;;;4996030;28;20054;-77
2022/06/28 01:06:38;;;;;;;35.55;17.40;;;12.70;99.90;;;;;;5012753;28;20046;-79
2022/06/28 01:09:03;;;;;;;41.85;17.95;;;12.60;99.90;;;;;;5012624;28;20093;-76
2022/06/28 01:11:29;;;;;;;38.40;18.13;;;12.60;99.90;;;;;;4995746;28;20153;-75
2022/06/28 01:13:59;;;;;;;37.33;17.85;;;12.60;99.90;;;;;;5012607;28;20143;-76
2022/06/28 01:16:27;;;;;;;37.17;17.67;;;12.60;99.90;;;;;;5012844;28;20057;-75
2022/06/28 01:18:53;;;;;;;39.00;18.40;;;12.60;99.90;;;;;;5012290;28;20038;-76
2022/06/28 01:21:19;;;;;;;36.20;17.00;;;12.50;99.90;;;;;;5012712;28;20054;-76
2022/06/28 01:23:47;;;;;;;42.00;18.50;;;12.50;99.90;;;;;;4995038;28;20100;-75
2022/06/28 01:26:14;;;;;;;;;;;12.60;99.90;;;;;;4979309;28;20045;-76
2022/06/28 01:28:41;;;;;;;35.10;17.13;;;12.50;99.90;;;;;;4994492;28;19983;-74
2022/06/28 01:31:07;;;;;;;35.83;16.60;;;12.50;99.90;;;;;;5012281;28;20088;-74
2022/06/28 01:33:36;;;;;;;38.00;16.13;;;12.50;99.90;;;;;;4995054;28;20482;-76
2022/06/28 01:36:06;;;;;;;35.40;17.40;;;12.50;99.90;;;;;;5012241;28;20038;-75
2022/06/28 01:38:32;;;;;;;41.72;16.80;;;12.50;99.90;;;;;;4979087;28;20474;-75
2022/06/28 01:40:58;;;;;;;36.17;17.47;;;12.50;99.90;;;;;;5012476;28;20399;-76
2022/06/28 01:43:24;;;;;;;41.83;17.83;;;12.50;99.90;;;;;;5012781;28;20625;-75
2022/06/28 01:45:52;;;;;;;37.03;16.08;;;12.50;99.90;;;;;;4994489;28;20057;-76
2022/06/28 01:48:19;;;;;;;39.30;17.58;;;12.50;99.90;;;;;;5012777;28;20129;-75
2022/06/28 01:50:49;;;;;;;40.60;17.10;;;12.50;99.90;;;;;;5012161;28;20042;-75
2022/06/28 01:53:15;;;;;;;47.38;17.23;;;12.50;99.90;;;;;;5011770;28;20053;-76
2022/06/28 01:55:42;;;;;;;38.70;17.73;;;12.40;99.90;;;;;;4994587;28;20179;-77
2022/06/28 01:58:09;;;;;;;34.72;16.73;;;12.40;99.90;;;;;;5012856;28;20069;-76
2022/06/28 02:00:36;;;;;;;35.10;16.88;;;12.30;99.90;;;;;;5013488;28;20037;-75
2022/06/28 02:03:02;;;;;;;38.83;16.92;;;12.30;99.90;;;;;;4999006;28;20045;-77
2022/06/28 02:05:28;;;;;;;37.80;17.05;;;12.20;99.90;;;;;;5015957;28;20070;-75
2022/06/28 02:07:55;;;;;;;41.35;17.42;;;12.20;99.90;;;;;;4981728;28;20050;-76
2022/06/28 02:10:21;;;;;;;36.08;17.85;;;12.20;99.90;;;;;;4998364;28;20108;-76
2022/06/28 02:12:47;;;;;;;38.80;17.90;;;12.20;99.90;;;;;;5015374;28;20054;-77
2022/06/28 02:15:14;;;;;;;40.33;18.07;;;12.20;99.90;;;;;;5015565;28;20088;-76
2022/06/28 02:17:41;;;;;;;39.63;16.55;;;12.20;99.90;;;;;;4997693;28;20050;-75
2022/06/28 02:20:07;;;;;;;41.88;17.95;;;12.20;99.90;;;;;;4997636;28;20050;-76
2022/06/28 02:22:33;;;;;;;43.97;18.13;;;12.20;99.90;;;;;;4980913;28;20050;-75
2022/06/28 02:24:59;;;;;;;37.83;18.25;;;12.20;99.90;;;;;;4998075;28;20099;-78
2022/06/28 02:27:25;;;;;;;38.70;18.35;;;12.20;99.90;;;;;;4997110;28;20058;-76
2022/06/28 02:29:51;;;;;;;42.28;18.27;;;12.20;99.90;;;;;;5014916;28;20049;-76
2022/06/28 02:32:17;;;;;;;42.92;18.95;;;12.10;99.90;;;;;;4997653;28;20050;-75
2022/06/28 02:40:24;;;;;;;45.40;19.65;;;12.10;99.90;;;;;;5014895;28;20057;-76
2022/06/28 02:42:57;;;;;;;42.00;18.98;;;12.10;99.90;;;;;;5014931;28;20064;-77
2022/06/28 02:45:25;;;;;;;40.08;18.98;;;12.00;99.90;;;;;;5015218;28;20171;-76
2022/06/28 02:47:51;;;;;;;52.17;20.02;;;12.00;99.90;;;;;;4997445;28;20474;-75
2022/06/28 02:50:18;;;;;;;42.83;18.38;;;12.00;99.90;;;;;;4997373;28;20117;-76
2022/06/28 02:52:44;;;;;;;50.20;20.48;;;12.00;99.90;;;;;;5014398;28;20046;-77
2022/06/28 02:55:10;;;;;;;45.30;19.50;;;12.10;99.90;;;;;;5014550;28;20077;-77
2022/06/28 02:57:37;;;;;;;48.45;19.85;;;12.10;99.90;;;;;;4997183;28;20104;-76
2022/06/28 03:00:10;;;;;;;42.35;18.90;;;12.10;99.90;;;;;;4997584;28;20065;-78
2022/06/28 03:02:38;;;;;;;44.05;19.38;;;12.10;99.90;;;;;;5014494;28;20449;-77
2022/06/28 03:05:06;;;;;;;45.20;20.02;;;12.00;99.90;;;;;;5014246;28;20132;-78
2022/06/28 03:07:32;;;;;;;48.55;20.90;;;12.00;99.90;;;;;;5014135;28;20045;-77
2022/06/28 03:09:57;;;;;;;54.25;21.33;;;12.00;99.90;;;;;;4964225;28;20369;-76
2022/06/28 03:12:23;;;;;;;50.40;20.85;;;12.00;99.90;;;;;;4980444;28;20053;-75
2022/06/28 03:14:49;;;;;;;45.22;20.67;;;11.90;99.90;;;;;;5014541;28;20111;-76
2022/06/28 03:17:15;;;;;;;55.40;21.08;;;11.90;99.90;;;;;;5014459;28;20046;-77
2022/06/28 03:19:40;;;;;;;46.55;20.75;;;11.90;99.90;;;;;;4980250;28;20108;-77
2022/06/28 03:22:06;;;;;;;45.72;20.95;;;11.90;99.90;;;;;;4996730;28;20058;-78
2022/06/28 03:24:32;;;;;;;50.97;21.98;;;11.90;99.90;;;;;;5013703;28;20053;-76
2022/06/28 03:26:58;;;;;;;45.70;20.52;;;11.90;99.90;;;;;;4995992;28;20197;-76
2022/06/28 03:29:24;;;;;;;51.88;21.65;;;11.90;99.90;;;;;;4995887;28;20048;-76
2022/06/28 03:31:50;;;;;;;59.53;21.00;;;11.80;99.90;;;;;;5013653;28;20050;-76
2022/06/28 03:34:16;;;;;;;52.08;20.95;;;11.90;99.90;;;;;;5013947;28;20054;-77
2022/06/28 03:36:42;;;;;;;47.08;21.95;;;11.80;99.90;;;;;;5013780;28;20382;-77
2022/06/28 03:39:08;;;;;;;53.05;21.83;;;11.90;99.90;;;;;;4995431;28;20191;-77
2022/06/28 03:41:34;;;;;;;47.60;21.83;;;11.80;99.90;;;;;;5013711;28;20137;-76
2022/06/28 03:44:00;;;;;;;53.13;20.58;;;11.90;99.90;;;;;;4996340;28;20054;-76
2022/06/28 03:46:25;;;;;;;54.20;21.33;;;11.90;99.90;;;;;;5013433;28;20461;-76
2022/06/28 03:48:51;;;;;;;50.15;21.80;;;12.00;99.90;;;;;;4995899;28;20152;-76
2022/06/28 03:51:17;;;;;;;43.95;20.15;;;12.10;99.90;;;;;;4995674;28;20045;-76
2022/06/28 03:53:43;;;;;;;49.33;20.55;;;12.20;99.90;;;;;;4996072;28;20077;-75
2022/06/28 03:56:10;;;;;;;53.15;20.60;;;12.20;99.90;;;;;;5013490;28;20058;-76
2022/06/28 03:58:36;;;;;;;;;;;12.30;99.90;;;;;;4980177;28;20052;-76
2022/06/28 04:01:02;;;;;;;47.63;19.98;;;12.30;99.90;;;;;;4995752;28;19969;-76
2022/06/28 04:03:28;;;;;;;43.38;19.90;;;12.30;99.90;;;;;;4995485;28;20409;-77
2022/06/28 04:05:54;;;;;;;43.35;19.40;;;12.30;99.90;;;;;;5013246;28;20141;-76
2022/06/28 04:08:20;;;;;;;43.15;19.83;;;12.20;99.90;;;;;;5013084;28;20049;-76
2022/06/28 04:10:46;;;;;;;48.83;20.25;;;12.30;99.90;;;;;;4995778;28;20057;-77
2022/06/28 04:13:12;;;;;;;42.25;20.15;;;12.30;99.90;;;;;;5013034;28;20049;-76
2022/06/28 04:15:38;;;;;;;50.10;20.00;;;12.30;99.90;;;;;;4979552;28;20056;-77
2022/06/28 04:18:05;;;;;;;47.05;20.20;;;12.30;99.90;;;;;;5013486;28;20058;-75
2022/06/28 04:20:31;;;;;;;48.33;19.88;;;12.40;99.90;;;;;;5013346;28;20077;-75
2022/06/28 04:22:57;;;;;;;47.97;19.70;;;12.40;99.90;;;;;;4994549;28;20119;-75
2022/06/28 04:25:23;;;;;;;45.25;19.52;;;12.50;99.90;;;;;;4995565;28;20136;-75
2022/06/28 04:27:48;;;;;;;45.75;20.60;;;12.50;99.90;;;;;;4995734;28;20470;-75
2022/06/28 04:30:14;;;;;;;46.88;20.70;;;12.50;99.90;;;;;;4995150;28;20046;-76
2022/06/28 04:32:40;;;;;;;46.95;19.50;;;12.50;99.90;;;;;;5012735;28;20057;-75
2022/06/28 04:35:07;;;;;;;41.37;18.73;;;12.60;99.90;;;;;;5012120;28;20358;-75
2022/06/28 04:37:33;;;;;;;43.55;19.35;;;12.60;99.90;;;;;;5012786;28;20041;-77
2022/06/28 04:39:59;;;;;;;45.00;19.73;;;12.70;99.90;;;;;;5012982;28;20042;-74
2022/06/28 04:42:25;;;;;;;42.88;19.65;;;12.70;99.90;;;;;;5012872;28;20050;-74
2022/06/28 04:44:50;;;;;;;42.47;19.13;;;12.70;99.90;;;;;;5012796;28;20053;-76
2022/06/28 04:47:16;;;;;;;46.13;17.83;;;12.70;99.90;;;;;;4995332;28;20119;-76
2022/06/28 04:49:42;;;;;;;45.00;18.40;;;12.70;99.90;;;;;;5012750;28;20042;-77
2022/06/28 04:52:08;;;;;;;40.80;18.55;;;12.80;99.90;;;;;;4994840;28;20106;-77
2022/06/28 04:54:34;;;;;;;43.53;18.60;;;12.80;99.90;;;;;;4995032;28;20061;-75
2022/06/28 04:57:00;;;;;;;41.92;18.63;;;12.90;99.90;;;;;;4978831;28;20366;-75
2022/06/28 04:59:25;;;;;;;39.33;17.77;;;12.90;99.90;;;;;;4979345;28;20050;-76
2022/06/28 05:01:51;;;;;;;46.13;18.17;;;13.00;99.90;;;;;;5012709;28;20072;-74
2022/06/28 05:04:17;;;;;;;41.90;17.20;;;13.00;99.90;;;;;;4978957;28;20200;-76
2022/06/28 05:06:43;;;;;;;36.25;16.58;;;13.00;99.90;;;;;;5012763;28;20045;-74
2022/06/28 05:09:08;;;;;;;39.70;16.73;;;13.00;99.90;;;;;;5012191;28;20053;-78
2022/06/28 05:11:34;;;;;;;40.55;17.35;;;13.10;99.90;;;;;;4994612;28;20132;-77
2022/06/28 05:14:00;;;;;;;39.05;16.92;;;13.10;99.90;;;;;;4995266;28;20137;-77
2022/06/28 05:16:26;;;;;;;50.25;17.73;;;13.10;99.90;;;;;;4994564;28;20057;-76
2022/06/28 05:18:52;;;;;;;33.90;17.05;;;13.20;99.90;;;;;;5012459;28;20052;-77
2022/06/28 05:21:18;;;;;;;35.42;15.60;;;13.20;99.90;;;;;;4979032;28;20133;-75
2022/06/28 05:23:44;;;;;;;35.05;15.43;;;13.30;99.90;;;;;;5012227;28;20501;-77
2022/06/28 05:26:10;;;;;;;33.88;16.23;;;13.40;99.90;;;;;;4978410;28;20054;-76
2022/06/28 05:28:35;;;;;;;35.83;14.38;;;13.40;99.90;;;;;;4994385;28;20042;-76
2022/06/28 05:31:01;;;;;;;33.90;14.57;;;13.40;99.90;;;;;;5012190;28;20048;-74
2022/06/28 05:33:27;;;;;;;40.92;15.63;;;13.40;99.90;;;;;;4978786;28;20349;-75
2022/06/28 05:35:53;;;;;;;37.65;15.57;;;13.50;99.90;;;;;;5015209;28;20050;-75
2022/06/28 05:38:18;;;;;;;44.97;16.10;;;13.50;99.90;;;;;;4982282;28;20120;-77
2022/06/28 05:40:44;;;;;;;37.50;16.15;;;13.60;99.90;;;;;;4998059;28;20734;-75
2022/06/28 05:43:10;;;;;;;34.15;14.60;;;13.60;99.90;;;;;;4998285;28;20064;-76
2022/06/28 05:45:36;;;;;;;35.25;15.18;;;13.70;99.90;;;;;;4999248;28;20060;-76
2022/06/28 05:48:02;;;;;;;35.53;14.25;;;13.80;99.90;;;;;;4998866;28;20049;-76
2022/06/28 05:50:28;;;;;;;41.33;15.52;;;13.80;99.90;;;;;;4999546;28;20053;-76
2022/06/28 05:52:54;;;;;;;38.80;16.25;;;13.90;99.90;;;;;;4998926;28;20042;-77
2022/06/28 05:55:20;;;;;;;36.67;15.02;;;13.90;99.90;;;;;;4982343;28;20505;-80
2022/06/28 05:57:49;;;;;;;35.20;14.63;;;14.00;99.90;;;;;;4999016;28;20052;-76
2022/06/28 06:00:15;;;;;;;35.53;15.15;;;14.00;99.90;;;;;;4998653;28;20096;-77
2022/06/28 06:02:42;;;;;;;36.97;15.25;;;14.00;99.90;;;;;;5016098;28;20076;-78
2022/06/28 06:05:08;;;;;;;33.37;14.77;;;14.00;99.90;;;;;;4999094;28;20041;-76
2022/06/28 06:07:34;;;;;;;33.20;15.20;;;14.10;99.90;;;;;;5015451;28;20041;-77
2022/06/28 06:10:03;;;;;;;35.03;15.23;;;14.10;99.90;;;;;;5015233;28;20042;-76
2022/06/28 06:12:29;;;;;;;36.78;14.73;;;14.20;99.90;;;;;;4999011;28;20313;-76
2022/06/28 06:14:58;;;;;;;39.42;15.68;;;14.20;99.90;;;;;;5016324;28;20053;-75
2022/06/28 06:17:30;;;;;;;30.30;14.63;;;14.30;99.90;;;;;;5015319;28;20042;-76
2022/06/28 06:19:56;;;;;;;36.03;14.95;;;14.40;99.90;;;;;;5016222;28;20364;-77
2022/06/28 06:22:22;;;;;;;36.47;14.65;;;14.40;99.90;;;;;;5015710;28;20156;-76
2022/06/28 06:24:47;;;;;;;30.05;13.57;;;14.50;99.90;;;;;;4997753;28;20046;-77
2022/06/28 06:27:14;;;;;;;31.00;13.57;;;14.50;99.90;;;;;;4981739;28;20045;-78
2022/06/28 06:29:41;;;;;;;41.30;14.30;;;14.60;99.90;;;;;;4999315;28;20489;-77
2022/06/28 06:32:07;;;;;;;32.45;14.05;;;14.70;99.90;;;;;;5015335;28;20041;-78
2022/06/28 06:34:33;;;;;;;36.65;14.68;;;14.80;99.90;;;;;;4982054;28;20038;-76
2022/06/28 06:36:58;;;;;;;31.75;14.18;;;14.80;99.90;;;;;;5014669;28;20048;-78
2022/06/28 06:39:24;;;;;;;31.63;13.55;;;14.90;99.90;;;;;;4982304;28;20100;-78
2022/06/28 06:41:50;;;;;;;29.13;13.77;;;15.10;99.90;;;;;;4997578;28;20153;-76
2022/06/28 06:44:16;;;;;;;28.67;12.15;;;15.10;99.90;;;;;;5015362;28;20050;-78
2022/06/28 06:46:41;;;;;;;33.85;13.13;;;15.20;99.90;;;;;;4982565;28;20125;-78
2022/06/28 06:49:08;;;;;;;31.20;12.77;;;15.40;99.90;;;;;;5017112;28;20038;-76
2022/06/28 06:51:34;;;;;;;29.25;11.95;;;15.50;99.90;;;;;;4998614;28;20355;-77
2022/06/28 06:53:59;;;;;;;27.67;10.97;;;15.70;99.90;;;;;;5017169;28;20073;-78
2022/06/28 06:56:25;;;;;;;36.10;12.03;;;15.60;99.90;;;;;;4998861;28;20120;-77
2022/06/28 06:58:51;;;;;;;30.13;11.97;;;15.80;99.90;;;;;;4966827;28;20046;-80
2022/06/28 07:01:17;;;;;;;26.70;12.50;;;15.90;99.90;;;;;;5015913;28;20358;-77
2022/06/28 07:03:44;;;;;;;24.10;11.90;;;16.00;99.90;;;;;;4985737;28;20037;-80
2022/06/28 07:06:14;;;;;;;24.88;10.77;;;16.00;99.90;;;;;;4997354;28;20504;-78
2022/06/28 07:08:40;;;;;;;29.92;11.13;;;15.90;99.90;;;;;;4982547;28;20139;-78
2022/06/28 07:11:06;;;;;;;25.15;10.48;;;16.00;99.90;;;;;;5001035;28;20044;-75
2022/06/28 07:13:32;;;;;;;25.97;8.77;;;16.10;99.90;;;;;;5017895;28;20143;-80
2022/06/28 07:15:58;;;;;;;27.47;9.67;;;16.20;99.90;;;;;;5016464;28;20284;-79
2022/06/28 07:18:24;;;;;;;30.40;8.70;;;16.30;99.90;;;;;;5015737;28;20125;-79
2022/06/28 07:20:52;;;;;;;23.67;8.20;;;16.40;99.90;;;;;;5014822;28;20084;-80
2022/06/28 07:23:18;;;;;;;26.10;8.52;;;16.40;99.90;;;;;;4983192;28;20049;-79
2022/06/28 07:25:44;;;;;;;20.97;8.73;;;16.50;99.90;;;;;;5000055;28;20086;-79
2022/06/28 07:28:10;;;;;;;24.87;8.90;;;16.40;99.90;;;;;;5000939;28;20042;-76
2022/06/28 07:30:36;;;;;;;26.02;9.63;;;16.50;99.90;;;;;;5016036;28;20422;-79
2022/06/28 07:33:02;;;;;;;22.98;9.32;;;16.50;99.90;;;;;;5015044;28;20362;-79
2022/06/28 07:35:28;;;;;;;24.27;10.35;;;16.80;99.90;;;;;;5014083;28;20048;-78
2022/06/28 07:37:54;;;;;;;27.23;9.40;;;17.10;99.90;;;;;;4996527;28;20049;-79
2022/06/28 07:40:20;;;;;;;25.63;9.07;;;17.30;99.90;;;;;;4996536;28;20037;-77
2022/06/28 07:42:46;;;;;;;22.40;8.87;;;17.60;99.90;;;;;;4980282;28;20049;-78
2022/06/28 07:45:13;;;;;;;22.45;8.13;;;17.80;99.90;;;;;;5013859;28;20046;-78
2022/06/28 07:47:39;;;;;;;20.27;7.07;;;18.10;99.90;;;;;;5013971;28;20046;-81
2022/06/28 07:52:49;;;;;;;32.33;8.65;;;18.20;99.90;;;;;;4983222;28;20180;-80
2022/06/28 07:55:16;;;;;;;23.43;7.53;;;18.10;99.90;;;;;;4996993;28;20144;-82
2022/06/28 07:57:41;;;;;;;21.98;8.02;;;18.40;99.90;;;;;;4996272;28;20100;-80
2022/06/28 08:00:08;;;;;;;27.53;8.03;;;18.50;99.90;;;;;;4996633;28;20473;-81
2022/06/28 08:02:34;;;;;;;23.90;8.05;;;18.30;99.90;;;;;;4980152;28;20052;-79
2022/06/28 08:04:59;;;;;;;23.23;8.27;;;18.30;99.90;;;;;;4983233;28;20081;-81
2022/06/28 08:07:25;;;;;;;27.40;6.30;;;18.40;99.90;;;;;;4982342;28;20485;-78
2022/06/28 08:09:52;;;;;;;18.63;7.60;;;18.20;99.90;;;;;;4996699;28;20037;-80
2022/06/28 08:12:17;;;;;;;22.42;6.60;;;18.30;99.90;;;;;;4997833;28;20045;-79
2022/06/28 08:14:43;;;;;;;23.63;7.27;;;18.50;99.90;;;;;;4985062;28;20053;-80
2022/06/28 08:17:09;;;;;;;17.10;5.47;;;18.60;99.90;;;;;;5017107;28;20057;-79
2022/06/28 08:19:36;;;;;;;26.57;6.80;;;18.90;99.90;;;;;;5017943;28;20042;-79
2022/06/28 08:22:02;;;;;;;19.42;6.20;;;19.00;99.90;;;;;;5020147;28;20079;-80
2022/06/28 08:24:28;;;;;;;14.52;5.97;;;19.20;99.90;;;;;;5018734;28;20427;-82
2022/06/28 08:26:53;;;;;;;23.03;6.20;;;19.30;99.90;;;;;;5017564;28;20116;-82
2022/06/28 08:29:21;;;;;;;28.77;6.03;;;19.10;99.90;;;;;;4986111;28;20041;-84
2022/06/28 08:31:47;;;;;;;15.60;5.05;;;19.00;99.90;;;;;;4998439;28;20564;-84
2022/06/28 08:34:13;;;;;;;17.60;4.13;;;19.20;99.90;;;;;;5002156;28;20357;-82
2022/06/28 08:36:38;;;;;;;18.03;4.33;;;19.40;99.90;;;;;;4967389;28;20049;-78
2022/06/28 08:39:05;;;;;;;19.90;4.17;;;19.40;99.90;;;;;;5020869;28;20117;-80
2022/06/28 08:41:33;;;;;;;14.52;4.15;;;19.50;99.90;;;;;;4984645;28;20054;-82
2022/06/28 08:43:59;;;;;;;15.05;4.30;;;19.80;99.90;;;;;;4995969;28;20053;-78
2022/06/28 08:46:25;;;;;;;17.37;4.40;;;20.00;99.90;;;;;;4995901;28;20100;-80
2022/06/28 08:49:02;;;;;;;18.00;3.40;;;20.00;99.90;;;;;;4995429;28;20053;-79
2022/06/28 08:51:31;;;;;;;11.77;3.40;;;20.10;99.90;;;;;;4996661;28;20061;-79
2022/06/28 08:54:02;;;;;;;17.27;3.95;;;20.10;99.90;;;;;;4978668;28;20098;-78
2022/06/28 08:56:28;;;;;;;14.95;3.33;;;20.10;99.90;;;;;;4993981;28;20393;-78
2022/06/28 08:58:58;;;;;;;9.48;2.85;;;19.90;99.90;;;;;;4994718;28;20050;-77
2022/06/28 09:01:24;;;;;;;13.18;3.20;;;20.20;99.90;;;;;;4993609;28;20042;-79
2022/06/28 09:03:52;;;;;;;15.77;3.70;;;20.40;99.90;;;;;;4992070;28;20069;-78
2022/06/28 09:06:18;;;;;;;13.32;3.50;;;20.20;99.90;;;;;;4993339;28;20086;-79
2022/06/28 09:08:43;;;;;;;15.83;3.40;;;20.20;99.90;;;;;;4977146;28;20088;-78
2022/06/28 09:11:09;;;;;;;14.10;3.23;;;20.30;99.90;;;;;;4982057;28;20081;-79
2022/06/28 09:13:36;;;;;;;11.90;3.40;;;20.30;99.90;;;;;;4986703;28;20447;-79
2022/06/28 09:16:03;;;;;;;;;;;20.40;99.90;;;;;;5001091;28;20046;-79
2022/06/28 09:18:37;;;;;;;15.98;3.00;;;20.30;99.90;;;;;;4999378;28;19967;-80
2022/06/28 09:21:09;;;;;;;14.40;3.28;;;20.40;99.90;;;;;;4998186;28;20057;-79
2022/06/28 09:23:37;;;;;;;17.17;3.20;;;20.30;99.90;;;;;;4996815;28;20501;-80
2022/06/28 09:26:07;;;;;;;9.30;3.00;;;20.20;99.90;;;;;;4980822;28;20076;-81
2022/06/28 09:28:35;;;;;;;13.02;3.00;;;20.10;99.90;;;;;;4996796;28;20045;-81
2022/06/28 09:31:25;;;;;;;17.90;3.65;;;20.00;99.90;;;;;;4980435;28;20054;-80
2022/06/28 09:34:00;;;;;;;16.95;3.25;;;20.10;99.90;;;;;;4999769;28;20102;-79
2022/06/28 09:36:28;;;;;;;13.07;3.10;;;20.30;99.90;;;;;;4996909;28;20109;-80
2022/06/28 09:38:56;;;;;;;12.35;2.88;;;20.30;99.90;;;;;;4996868;28;20549;-76
2022/06/28 09:41:29;;;;;;;15.82;3.58;;;20.10;99.90;;;;;;4995399;28;20100;-79
2022/06/28 09:43:57;;;;;;;17.17;4.07;;;20.10;99.90;;;;;;4996010;28;20050;-79
2022/06/28 09:46:26;;;;;;;17.30;3.50;;;20.40;99.90;;;;;;4996531;28;20094;-79
2022/06/28 09:48:58;;;;;;;14.52;2.88;;;20.40;99.90;;;;;;4997113;28;20049;-76
2022/06/28 09:51:25;;;;;;;10.23;2.20;;;20.20;99.90;;;;;;4996584;28;20108;-76
2022/06/28 09:53:55;;;;;;;11.52;1.73;;;20.30;99.90;;;;;;4980890;28;20098;-80
2022/06/28 09:56:23;;;;;;;9.77;2.17;;;20.60;99.90;;;;;;4996290;28;20560;-81
2022/06/28 09:58:50;;;;;;;6.72;2.28;;;20.70;99.90;;;;;;4995587;28;20141;-80
2022/06/28 10:01:17;;;;;;;13.35;2.10;;;20.70;99.90;;;;;;4995516;28;20046;-80
2022/06/28 10:03:43;;;;;;;;;;;20.90;99.90;;;;;;4997701;28;20050;-82
2022/06/28 10:06:09;;;;;;;5.47;1.33;;;21.00;99.90;;;;;;4995910;28;19922;-82
2022/06/28 10:08:36;;;;;;;12.10;2.05;;;21.00;99.90;;;;;;4995617;28;20394;-78
2022/06/28 10:11:02;;;;;;;8.63;1.83;;;21.10;99.90;;;;;;4979371;28;20320;-81
2022/06/28 10:16:35;;;;;;;11.32;2.15;;;21.00;99.90;;;;;;4982215;28;20050;-80
2022/06/28 10:19:03;;;;;;;16.35;2.85;;;21.00;99.90;;;;;;4995620;28;20124;-79
2022/06/28 10:22:01;;;;;;;8.00;1.95;;;21.10;99.90;;;;;;4994805;28;20054;-77
2022/06/28 10:24:54;;;;;;;9.70;2.17;;;21.10;99.80;;;;;;4974303;28;20055;-81
2022/06/28 10:27:20;;;;;;;11.70;2.47;;;21.30;99.40;;;;;;4978649;28;20521;-77
2022/06/28 10:29:58;;;;;;;;;;;21.50;99.10;;;;;;4994982;28;20105;-79
2022/06/28 10:32:55;;;;;;;10.68;1.90;;;21.50;99.40;;;;;;4995821;28;19921;-77
2022/06/28 10:35:33;;;;;;;9.00;2.10;;;21.90;99.80;;;;;;4996923;28;20046;-78
2022/06/28 10:38:08;;;;;;;8.90;2.00;;;22.20;98.20;;;;;;4995795;28;20050;-77
2022/06/28 10:40:45;;;;;;;10.02;2.60;;;22.30;98.10;;;;;;4997593;28;20050;-77
2022/06/28 10:43:11;;;;;;;13.57;3.10;;;22.50;98.50;;;;;;5016270;28;20064;-77
2022/06/28 10:46:09;;;;;;;10.23;2.57;;;22.60;97.50;;;;;;5015985;28;20042;-78
2022/06/28 10:48:50;;;;;;;9.40;2.25;;;22.60;97.80;;;;;;4985712;28;20395;-86
2022/06/28 10:51:18;;;;;;;12.55;2.15;;;22.80;95.90;;;;;;5016315;28;20050;-81
2022/06/28 10:54:00;;;;;;;12.00;2.28;;;22.80;95.70;;;;;;5015963;28;20054;-77
2022/06/28 10:56:28;;;;;;;11.25;1.70;;;23.00;95.40;;;;;;4999617;28;20103;-78
2022/06/28 10:58:56;;;;;;;13.70;2.55;;;23.00;95.00;;;;;;5015824;28;20037;-77
2022/06/28 11:01:43;;;;;;;12.38;2.17;;;22.40;94.70;;;;;;4998470;28;20108;-80
2022/06/28 11:04:23;;;;;;;12.00;2.00;;;22.50;95.50;;;;;;5017460;28;20121;-79
2022/06/28 11:06:51;;;;;;;11.88;2.45;;;22.70;94.90;;;;;;4999834;28;20046;-80
2022/06/28 11:09:55;;;;;;;10.80;2.05;;;22.80;94.00;;;;;;4999507;28;20037;-76
2022/06/28 11:12:41;;;;;;;12.43;2.00;;;22.50;94.10;;;;;;5016973;28;20041;-81
2022/06/28 11:15:36;;;;;;;11.25;1.90;;;22.40;92.70;;;;;;4983233;28;20108;-79
2022/06/28 11:18:13;;;;;;;11.63;1.50;;;22.60;94.80;;;;;;4984141;28;20508;-77
2022/06/28 11:20:39;;;;;;;15.13;2.00;;;22.90;93.00;;;;;;5016888;28;20108;-78
2022/06/28 11:23:05;;;;;;;9.63;1.40;;;22.80;93.40;;;;;;4983235;28;20481;-78
2022/06/28 11:28:17;;;;;;;13.73;1.73;;;22.90;92.40;;;;;;4986912;28;20049;-78
2022/06/28 11:30:43;;;;;;;13.40;2.15;;;22.80;92.40;;;;;;5000999;28;20139;-78
2022/06/28 11:33:11;;;;;;;9.60;1.37;;;22.60;93.20;;;;;;5000554;28;20145;-78
2022/06/28 11:35:40;;;;;;;10.55;1.73;;;22.90;94.00;;;;;;5003857;28;20404;-76
2022/06/28 11:38:09;;;;;;;7.00;1.25;;;23.10;93.00;;;;;;4988178;28;20057;-77
2022/06/28 11:40:52;;;;;;;12.50;1.63;;;23.00;91.70;;;;;;5007885;28;20110;-77
2022/06/28 11:43:20;;;;;;;9.35;1.10;;;23.20;90.50;;;;;;4990966;28;20151;-78
2022/06/28 11:45:49;;;;;;;11.05;1.42;;;22.90;90.60;;;;;;5024837;28;20050;-78
2022/06/28 11:48:27;;;;;;;8.38;1.23;;;22.60;90.80;;;;;;5026054;28;20081;-79
2022/06/28 11:50:57;;;;;;;8.02;1.02;;;22.30;91.40;;;;;;5008894;28;20068;-79
2022/06/28 11:53:24;;;;;;;10.57;1.67;;;22.80;90.10;;;;;;4991569;28;20140;-77
2022/06/28 11:55:59;;;;;;;;;;;22.90;90.30;;;;;;5024330;28;20046;-78
2022/06/28 11:58:25;;;;;;;9.63;1.90;;;22.90;91.10;;;;;;5023682;28;19921;-80
2022/06/28 12:01:22;;;;;;;13.10;1.50;;;22.90;90.60;;;;;;5023474;28;20089;-76
2022/06/28 12:03:48;;;;;;;8.32;1.35;;;22.90;88.70;;;;;;5022761;28;20068;-76
2022/06/28 12:06:20;;;;;;;7.87;1.10;;;22.90;89.90;;;;;;5003560;28;20049;-74
2022/06/28 12:08:58;;;;;;;11.02;1.25;;;23.00;88.60;;;;;;5003616;28;20045;-78
2022/06/28 12:11:37;;;;;;;9.98;1.00;;;22.70;88.40;;;;;;5020740;28;20050;-76
2022/06/28 12:14:03;;;;;;;7.88;1.00;;;22.70;89.20;;;;;;4987455;28;20132;-77
2022/06/28 12:16:37;;;;;;;4.57;0.80;;;22.70;89.40;;;;;;5002980;28;20085;-76
2022/06/28 12:19:06;;;;;;;9.15;0.93;;;22.80;87.50;;;;;;5003523;28;20046;-76
2022/06/28 12:21:32;;;;;;;9.35;0.90;;;23.00;89.50;;;;;;5003786;28;20076;-79
2022/06/28 12:23:59;;;;;;;8.63;1.17;;;23.20;88.00;;;;;;5021252;28;20148;-79
2022/06/28 12:26:45;;;;;;;8.05;0.90;;;23.00;82.00;;;;;;4988148;28;20057;-75
2022/06/28 12:29:13;;;;;;;8.80;1.00;;;23.20;86.50;;;;;;4987897;28;20045;-75
2022/06/28 12:31:42;;;;;;;10.27;1.10;;;23.20;83.50;;;;;;5021446;28;20129;-77
2022/06/28 12:34:09;;;;;;;9.18;0.98;;;23.30;83.50;;;;;;5020870;28;20053;-80
2022/06/28 12:36:35;;;;;;;10.93;0.90;;;23.20;85.50;;;;;;5021219;28;20045;-76
2022/06/28 12:39:03;;;;;;;8.45;1.15;;;23.10;83.90;;;;;;5002979;28;20129;-78
2022/06/28 12:41:28;;;;;;;8.63;0.98;;;23.10;86.90;;;;;;5019781;28;20135;-76
2022/06/28 12:43:54;;;;;;;7.70;0.90;;;23.10;86.90;;;;;;5019168;28;20050;-77
2022/06/28 12:46:20;;;;;;;6.00;1.47;;;22.80;85.50;;;;;;5021312;28;20069;-75
2022/06/28 12:48:46;;;;;;;11.07;0.90;;;22.80;84.70;;;;;;4971760;28;20312;-76
2022/06/28 12:51:12;;;;;;;8.93;1.20;;;23.20;87.00;;;;;;5018983;28;20167;-78
2022/06/28 12:53:38;;;;;;;8.82;1.23;;;23.10;81.60;;;;;;5019703;28;20522;-77